sensor_id;sensor_type;location;lat;lon;timestamp;temperature;humidity
23671;DHT22;12012;51.998;7.614;2022-12-18T00:01:35;-6.90;1.00
23671;DHT22;12012;51.998;7.614;2022-12-18T00:04:05;-6.90;99.90
23671;DHT22;12012;51.998;7.614;2022-12-18T00:06:32;-6.90;99.90
23671;DHT22;12012;51.998;7.614;2022-12-18T00:09:01;-7.00;79.50
23671;DHT22;12012;51.998;7.614;2022-12-18T00:11:29;-7.00;99.90
23671;DHT22;12012;51.998;7.614;2022-12-18T00:13:57;-7.00;99.90
23671;DHT22;12012;51.998;7.614;2022-12-18T00:16:25;-7.00;99.90
23671;DHT22;12012;51.998;7.614;2022-12-18T00:18:53;-7.00;99.90
23671;DHT22;12012;51.998;7.614;2022-12-18T00:21:19;-7.00;99.90
23671;DHT22;12012;51.998;7.614;2022-12-18T00:23:46;-7.00;99.90
23671;DHT22;12012;51.998;7.614;2022-12-18T00:26:18;-7.00;99.90
23671;DHT22;12012;51.998;7.614;2022-12-18T00:28:44;-7.00;99.90
23671;DHT22;12012;51.998;7.614;2022-12-18T00:31:13;-7.00;1.00
23671;DHT22;12012;51.998;7.614;2022-12-18T00:33:39;-7.00;1.00
23671;DHT22;12012;51.998;7.614;2022-12-18T00:36:10;-7.10;99.90
23671;DHT22;12012;51.998;7.614;2022-12-18T00:38:36;-7.10;1.00
23671;DHT22;12012;51.998;7.614;2022-12-18T00:41:02;-7.10;1.00
23671;DHT22;12012;51.998;7.614;2022-12-18T00:43:28;-7.10;1.00
23671;DHT22;12012;51.998;7.614;2022-12-18T00:45:54;-7.20;99.90
23671;DHT22;12012;51.998;7.614;2022-12-18T00:48:20;-7.20;99.90
23671;DHT22;12012;51.998;7.614;2022-12-18T00:50:47;-7.20;99.90
23671;DHT22;12012;51.998;7.614;2022-12-18T00:53:12;-7.20;99.90
23671;DHT22;12012;51.998;7.614;2022-12-18T00:55:41;-7.20;1.00
23671;DHT22;12012;51.998;7.614;2022-12-18T00:58:08;-7.20;1.00
23671;DHT22;12012;51.998;7.614;2022-12-18T01:00:34;-7.20;1.00
23671;DHT22;12012;51.998;7.614;2022-12-18T01:03:00;-7.20;99.90
23671;DHT22;12012;51.998;7.614;2022-12-18T01:05:25;-7.30;99.90
23671;DHT22;12012;51.998;7.614;2022-12-18T01:07:51;-7.30;99.90
23671;DHT22;12012;51.998;7.614;2022-12-18T01:10:17;-7.30;99.90
23671;DHT22;12012;51.998;7.614;2022-12-18T01:12:42;-7.40;99.90
23671;DHT22;12012;51.998;7.614;2022-12-18T01:15:10;-7.40;99.90
23671;DHT22;12012;51.998;7.614;2022-12-18T01:17:36;-7.40;99.90
23671;DHT22;12012;51.998;7.614;2022-12-18T01:20:03;-7.40;99.90
23671;DHT22;12012;51.998;7.614;2022-12-18T01:22:28;-7.40;99.90
23671;DHT22;12012;51.998;7.614;2022-12-18T01:24:54;-7.40;99.90
23671;DHT22;12012;51.998;7.614;2022-12-18T01:27:19;-7.40;99.90
23671;DHT22;12012;51.998;7.614;2022-12-18T01:29:45;-7.40;99.90
23671;DHT22;12012;51.998;7.614;2022-12-18T01:32:11;-7.40;99.90
23671;DHT22;12012;51.998;7.614;2022-12-18T01:34:37;-7.40;99.90
23671;DHT22;12012;51.998;7.614;2022-12-18T01:37:04;-7.40;1.00
23671;DHT22;12012;51.998;7.614;2022-12-18T01:39:30;-7.40;1.00
23671;DHT22;12012;51.998;7.614;2022-12-18T01:41:57;-7.50;1.00
23671;DHT22;12012;51.998;7.614;2022-12-18T01:52:50;-7.40;62.60
23671;DHT22;12012;51.998;7.614;2022-12-18T01:55:19;-7.50;1.00
23671;DHT22;12012;51.998;7.614;2022-12-18T01:57:44;-7.50;1.00
23671;DHT22;12012;51.998;7.614;2022-12-18T02:00:18;-7.50;99.90
23671;DHT22;12012;51.998;7.614;2022-12-18T02:02:45;-7.50;99.90
23671;DHT22;12012;51.998;7.614;2022-12-18T02:05:14;-7.50;99.90
23671;DHT22;12012;51.998;7.614;2022-12-18T02:10:57;-7.50;1.00
23671;DHT22;12012;51.998;7.614;2022-12-18T02:13:46;-7.50;1.00
23671;DHT22;12012;51.998;7.614;2022-12-18T02:16:24;-7.50;99.90
23671;DHT22;12012;51.998;7.614;2022-12-18T02:18:56;-7.50;99.90
23671;DHT22;12012;51.998;7.614;2022-12-18T02:26:58;-7.60;99.90
23671;DHT22;12012;51.998;7.614;2022-12-18T02:29:29;-7.60;99.90
23671;DHT22;12012;51.998;7.614;2022-12-18T02:32:06;-7.60;43.80
23671;DHT22;12012;51.998;7.614;2022-12-18T02:34:36;-7.60;43.80
23671;DHT22;12012;51.998;7.614;2022-12-18T02:37:05;-7.70;99.90
23671;DHT22;12012;51.998;7.614;2022-12-18T02:39:34;-7.70;99.90
23671;DHT22;12012;51.998;7.614;2022-12-18T02:42:01;-7.70;99.90
23671;DHT22;12012;51.998;7.614;2022-12-18T02:44:43;-7.70;99.90
23671;DHT22;12012;51.998;7.614;2022-12-18T02:47:14;-7.70;99.90
23671;DHT22;12012;51.998;7.614;2022-12-18T02:57:44;-7.70;99.90
23671;DHT22;12012;51.998;7.614;2022-12-18T03:00:12;-7.70;99.90
23671;DHT22;12012;51.998;7.614;2022-12-18T03:02:47;-7.70;99.90
23671;DHT22;12012;51.998;7.614;2022-12-18T03:05:21;-7.70;62.30
23671;DHT22;12012;51.998;7.614;2022-12-18T03:08:01;-7.70;16.30
23671;DHT22;12012;51.998;7.614;2022-12-18T03:10:30;-7.70;1.00
23671;DHT22;12012;51.998;7.614;2022-12-18T03:13:12;-7.80;1.00
23671;DHT22;12012;51.998;7.614;2022-12-18T03:15:42;-7.80;2.50
23671;DHT22;12012;51.998;7.614;2022-12-18T03:18:15;-7.80;1.00
23671;DHT22;12012;51.998;7.614;2022-12-18T03:20:44;-7.80;1.00
23671;DHT22;12012;51.998;7.614;2022-12-18T03:23:17;-7.80;1.00
23671;DHT22;12012;51.998;7.614;2022-12-18T03:25:44;-7.80;85.90
23671;DHT22;12012;51.998;7.614;2022-12-18T03:28:14;-7.80;95.20
23671;DHT22;12012;51.998;7.614;2022-12-18T03:30:43;-7.80;1.00
23671;DHT22;12012;51.998;7.614;2022-12-18T03:33:15;-7.80;1.00
23671;DHT22;12012;51.998;7.614;2022-12-18T03:35:58;-7.80;1.00
23671;DHT22;12012;51.998;7.614;2022-12-18T03:38:24;-7.80;1.00
23671;DHT22;12012;51.998;7.614;2022-12-18T03:44:06;-7.90;1.00
23671;DHT22;12012;51.998;7.614;2022-12-18T03:52:38;-7.90;1.00
23671;DHT22;12012;51.998;7.614;2022-12-18T03:55:06;-7.90;1.00
23671;DHT22;12012;51.998;7.614;2022-12-18T03:57:32;-7.80;1.00
23671;DHT22;12012;51.998;7.614;2022-12-18T04:00:11;-7.90;1.00
23671;DHT22;12012;51.998;7.614;2022-12-18T04:05:18;-7.90;1.00
23671;DHT22;12012;51.998;7.614;2022-12-18T04:07:47;-7.90;1.00
23671;DHT22;12012;51.998;7.614;2022-12-18T04:10:14;-7.90;1.00
23671;DHT22;12012;51.998;7.614;2022-12-18T04:12:40;-7.90;1.00
23671;DHT22;12012;51.998;7.614;2022-12-18T04:15:07;-8.00;1.00
23671;DHT22;12012;51.998;7.614;2022-12-18T04:17:32;-7.90;1.00
23671;DHT22;12012;51.998;7.614;2022-12-18T04:19:58;-8.00;99.90
23671;DHT22;12012;51.998;7.614;2022-12-18T04:22:23;-8.00;99.90
23671;DHT22;12012;51.998;7.614;2022-12-18T04:24:49;-8.00;99.90
23671;DHT22;12012;51.998;7.614;2022-12-18T04:27:15;-8.00;99.90
23671;DHT22;12012;51.998;7.614;2022-12-18T04:29:40;-8.00;99.90
23671;DHT22;12012;51.998;7.614;2022-12-18T04:32:06;-8.10;99.90
23671;DHT22;12012;51.998;7.614;2022-12-18T04:34:32;-8.00;99.90
23671;DHT22;12012;51.998;7.614;2022-12-18T04:36:57;-8.10;99.90
23671;DHT22;12012;51.998;7.614;2022-12-18T04:39:23;-8.10;99.90
23671;DHT22;12012;51.998;7.614;2022-12-18T04:41:48;-8.10;99.90
23671;DHT22;12012;51.998;7.614;2022-12-18T04:44:14;-8.10;99.90
23671;DHT22;12012;51.998;7.614;2022-12-18T04:46:40;-8.10;99.90
23671;DHT22;12012;51.998;7.614;2022-12-18T04:49:05;-8.10;99.90
23671;DHT22;12012;51.998;7.614;2022-12-18T04:51:31;-8.20;99.90
23671;DHT22;12012;51.998;7.614;2022-12-18T04:53:57;-8.20;99.90
23671;DHT22;12012;51.998;7.614;2022-12-18T04:56:22;-8.20;99.90
23671;DHT22;12012;51.998;7.614;2022-12-18T04:58:48;-8.20;99.90
23671;DHT22;12012;51.998;7.614;2022-12-18T05:01:15;-8.20;99.90
23671;DHT22;12012;51.998;7.614;2022-12-18T05:03:41;-8.20;99.90
23671;DHT22;12012;51.998;7.614;2022-12-18T05:06:07;-8.20;99.90
23671;DHT22;12012;51.998;7.614;2022-12-18T05:08:33;-8.30;99.90
23671;DHT22;12012;51.998;7.614;2022-12-18T05:11:00;-8.30;99.90
23671;DHT22;12012;51.998;7.614;2022-12-18T05:13:27;-8.30;99.90
23671;DHT22;12012;51.998;7.614;2022-12-18T05:15:53;-8.30;99.90
23671;DHT22;12012;51.998;7.614;2022-12-18T05:18:19;-8.30;99.90
23671;DHT22;12012;51.998;7.614;2022-12-18T05:20:45;-8.40;99.90
23671;DHT22;12012;51.998;7.614;2022-12-18T05:23:10;-8.30;99.90
23671;DHT22;12012;51.998;7.614;2022-12-18T05:25:36;-8.30;99.90
23671;DHT22;12012;51.998;7.614;2022-12-18T05:28:01;-8.30;99.90
23671;DHT22;12012;51.998;7.614;2022-12-18T05:30:27;-8.30;99.90
23671;DHT22;12012;51.998;7.614;2022-12-18T05:32:53;-8.30;99.90
23671;DHT22;12012;51.998;7.614;2022-12-18T05:35:19;-8.30;99.90
23671;DHT22;12012;51.998;7.614;2022-12-18T05:37:44;-8.30;99.90
23671;DHT22;12012;51.998;7.614;2022-12-18T05:40:11;-8.30;99.90
23671;DHT22;12012;51.998;7.614;2022-12-18T05:42:37;-8.30;99.90
23671;DHT22;12012;51.998;7.614;2022-12-18T05:45:02;-8.30;99.90
23671;DHT22;12012;51.998;7.614;2022-12-18T05:47:28;-8.40;99.90
23671;DHT22;12012;51.998;7.614;2022-12-18T05:49:54;-8.40;99.90
23671;DHT22;12012;51.998;7.614;2022-12-18T05:52:20;-8.40;99.90
23671;DHT22;12012;51.998;7.614;2022-12-18T05:54:45;-8.40;99.90
23671;DHT22;12012;51.998;7.614;2022-12-18T05:57:11;-8.50;99.90
23671;DHT22;12012;51.998;7.614;2022-12-18T05:59:37;-8.50;99.90
23671;DHT22;12012;51.998;7.614;2022-12-18T06:02:02;-8.50;99.90
23671;DHT22;12012;51.998;7.614;2022-12-18T06:04:31;-8.50;99.90
23671;DHT22;12012;51.998;7.614;2022-12-18T06:06:57;-8.50;99.90
23671;DHT22;12012;51.998;7.614;2022-12-18T06:09:22;-8.50;99.90
23671;DHT22;12012;51.998;7.614;2022-12-18T06:11:48;-8.60;99.90
23671;DHT22;12012;51.998;7.614;2022-12-18T06:14:16;-8.60;99.90
23671;DHT22;12012;51.998;7.614;2022-12-18T06:16:42;-8.60;99.90
23671;DHT22;12012;51.998;7.614;2022-12-18T06:19:13;-8.50;99.90
23671;DHT22;12012;51.998;7.614;2022-12-18T06:21:39;-8.50;99.90
23671;DHT22;12012;51.998;7.614;2022-12-18T06:24:05;-8.50;99.90
23671;DHT22;12012;51.998;7.614;2022-12-18T06:26:31;-8.60;99.90
23671;DHT22;12012;51.998;7.614;2022-12-18T06:28:56;-8.50;99.90
23671;DHT22;12012;51.998;7.614;2022-12-18T06:31:22;-8.50;1.00
23671;DHT22;12012;51.998;7.614;2022-12-18T06:33:47;-8.50;99.90
23671;DHT22;12012;51.998;7.614;2022-12-18T06:36:13;-8.50;99.90
23671;DHT22;12012;51.998;7.614;2022-12-18T06:38:40;-8.50;99.90
23671;DHT22;12012;51.998;7.614;2022-12-18T06:41:11;-8.50;99.90
23671;DHT22;12012;51.998;7.614;2022-12-18T06:43:37;-8.50;99.90
23671;DHT22;12012;51.998;7.614;2022-12-18T06:46:04;-8.50;99.90
23671;DHT22;12012;51.998;7.614;2022-12-18T06:48:30;-8.60;99.90
23671;DHT22;12012;51.998;7.614;2022-12-18T06:50:56;-8.50;99.90
23671;DHT22;12012;51.998;7.614;2022-12-18T06:53:22;-8.60;99.90
23671;DHT22;12012;51.998;7.614;2022-12-18T06:55:47;-8.60;99.90
23671;DHT22;12012;51.998;7.614;2022-12-18T06:58:13;-8.60;99.90
23671;DHT22;12012;51.998;7.614;2022-12-18T07:00:39;-8.60;99.90
23671;DHT22;12012;51.998;7.614;2022-12-18T07:03:04;-8.60;99.90
23671;DHT22;12012;51.998;7.614;2022-12-18T07:05:30;-8.60;99.90
23671;DHT22;12012;51.998;7.614;2022-12-18T07:07:55;-8.60;99.90
23671;DHT22;12012;51.998;7.614;2022-12-18T07:10:21;-8.60;99.90
23671;DHT22;12012;51.998;7.614;2022-12-18T07:12:47;-8.70;99.90
23671;DHT22;12012;51.998;7.614;2022-12-18T07:15:12;-8.70;99.90
23671;DHT22;12012;51.998;7.614;2022-12-18T07:17:38;-8.70;99.90
23671;DHT22;12012;51.998;7.614;2022-12-18T07:20:03;-8.60;99.90
23671;DHT22;12012;51.998;7.614;2022-12-18T07:22:29;-8.70;99.90
23671;DHT22;12012;51.998;7.614;2022-12-18T07:24:55;-8.70;99.90
23671;DHT22;12012;51.998;7.614;2022-12-18T07:27:21;-8.70;99.90
23671;DHT22;12012;51.998;7.614;2022-12-18T07:29:46;-8.60;1.00
23671;DHT22;12012;51.998;7.614;2022-12-18T07:32:12;-8.60;1.00
23671;DHT22;12012;51.998;7.614;2022-12-18T07:34:37;-8.60;1.00
23671;DHT22;12012;51.998;7.614;2022-12-18T07:37:03;-8.60;1.00
23671;DHT22;12012;51.998;7.614;2022-12-18T07:39:29;-8.50;1.00
23671;DHT22;12012;51.998;7.614;2022-12-18T07:41:54;-8.50;1.00
23671;DHT22;12012;51.998;7.614;2022-12-18T07:44:38;-8.50;99.90
23671;DHT22;12012;51.998;7.614;2022-12-18T07:47:04;-8.50;99.90
23671;DHT22;12012;51.998;7.614;2022-12-18T07:49:30;-8.40;99.90
23671;DHT22;12012;51.998;7.614;2022-12-18T07:51:56;-8.40;99.90
23671;DHT22;12012;51.998;7.614;2022-12-18T07:54:23;-8.40;99.90
23671;DHT22;12012;51.998;7.614;2022-12-18T07:56:48;-8.40;99.90
23671;DHT22;12012;51.998;7.614;2022-12-18T07:59:14;-8.40;1.00
23671;DHT22;12012;51.998;7.614;2022-12-18T08:01:40;-8.30;99.90
23671;DHT22;12012;51.998;7.614;2022-12-18T08:04:05;-8.30;99.90
23671;DHT22;12012;51.998;7.614;2022-12-18T08:06:31;-8.20;99.90
23671;DHT22;12012;51.998;7.614;2022-12-18T08:08:56;-8.10;1.00
23671;DHT22;12012;51.998;7.614;2022-12-18T08:11:24;-8.10;1.00
23671;DHT22;12012;51.998;7.614;2022-12-18T08:13:50;-8.00;1.00
23671;DHT22;12012;51.998;7.614;2022-12-18T08:16:16;-7.90;1.00
23671;DHT22;12012;51.998;7.614;2022-12-18T08:18:42;-7.80;1.00
23671;DHT22;12012;51.998;7.614;2022-12-18T08:21:13;-7.80;1.00
23671;DHT22;12012;51.998;7.614;2022-12-18T08:23:40;-7.60;1.00
23671;DHT22;12012;51.998;7.614;2022-12-18T08:26:05;-7.60;1.00
23671;DHT22;12012;51.998;7.614;2022-12-18T08:28:31;-7.50;6.50
23671;DHT22;12012;51.998;7.614;2022-12-18T08:30:57;-7.30;1.00
23671;DHT22;12012;51.998;7.614;2022-12-18T08:33:23;-7.20;1.00
23671;DHT22;12012;51.998;7.614;2022-12-18T08:35:48;-7.10;1.00
23671;DHT22;12012;51.998;7.614;2022-12-18T08:38:14;-7.00;1.00
23671;DHT22;12012;51.998;7.614;2022-12-18T08:40:40;-6.90;1.00
23671;DHT22;12012;51.998;7.614;2022-12-18T08:43:07;-6.80;1.00
23671;DHT22;12012;51.998;7.614;2022-12-18T08:45:51;-6.70;1.00
23671;DHT22;12012;51.998;7.614;2022-12-18T08:48:16;-6.60;99.90
23671;DHT22;12012;51.998;7.614;2022-12-18T08:50:42;-6.50;99.90
23671;DHT22;12012;51.998;7.614;2022-12-18T08:53:07;-6.40;99.90
23671;DHT22;12012;51.998;7.614;2022-12-18T08:55:33;-6.30;99.90
23671;DHT22;12012;51.998;7.614;2022-12-18T08:57:58;-6.20;99.90
23671;DHT22;12012;51.998;7.614;2022-12-18T09:00:24;-6.10;99.90
23671;DHT22;12012;51.998;7.614;2022-12-18T09:02:49;-6.00;99.90
23671;DHT22;12012;51.998;7.614;2022-12-18T09:05:15;-5.90;99.90
23671;DHT22;12012;51.998;7.614;2022-12-18T09:07:41;-5.90;99.90
23671;DHT22;12012;51.998;7.614;2022-12-18T09:10:07;-5.80;99.90
23671;DHT22;12012;51.998;7.614;2022-12-18T09:12:32;-5.50;99.90
23671;DHT22;12012;51.998;7.614;2022-12-18T09:14:58;-5.20;65.50
23671;DHT22;12012;51.998;7.614;2022-12-18T09:17:23;-5.00;99.90
23671;DHT22;12012;51.998;7.614;2022-12-18T09:19:49;-4.90;1.00
23671;DHT22;12012;51.998;7.614;2022-12-18T09:22:14;-4.80;26.50
23671;DHT22;12012;51.998;7.614;2022-12-18T09:24:40;-4.80;99.90
23671;DHT22;12012;51.998;7.614;2022-12-18T09:27:06;-4.80;99.90
23671;DHT22;12012;51.998;7.614;2022-12-18T09:29:32;-4.70;59.30
23671;DHT22;12012;51.998;7.614;2022-12-18T09:31:57;-4.70;57.60
23671;DHT22;12012;51.998;7.614;2022-12-18T09:34:23;-4.60;80.90
23671;DHT22;12012;51.998;7.614;2022-12-18T09:36:49;-4.60;97.40
23671;DHT22;12012;51.998;7.614;2022-12-18T09:39:14;-4.50;99.30
23671;DHT22;12012;51.998;7.614;2022-12-18T09:47:10;-4.20;99.90
23671;DHT22;12012;51.998;7.614;2022-12-18T09:49:42;-4.00;99.90
23671;DHT22;12012;51.998;7.614;2022-12-18T09:52:14;-3.80;96.20
23671;DHT22;12012;51.998;7.614;2022-12-18T09:54:47;-3.60;1.00
23671;DHT22;12012;51.998;7.614;2022-12-18T09:57:21;-3.40;99.90
23671;DHT22;12012;51.998;7.614;2022-12-18T09:59:55;-3.10;14.10
23671;DHT22;12012;51.998;7.614;2022-12-18T10:02:24;-2.80;1.00
23671;DHT22;12012;51.998;7.614;2022-12-18T10:05:16;-2.50;99.90
23671;DHT22;12012;51.998;7.614;2022-12-18T10:10:16;-1.90;1.00
23671;DHT22;12012;51.998;7.614;2022-12-18T10:16:15;-1.40;99.90
23671;DHT22;12012;51.998;7.614;2022-12-18T10:21:29;-0.90;63.20
23671;DHT22;12012;51.998;7.614;2022-12-18T10:26:31;-0.70;99.90
23671;DHT22;12012;51.998;7.614;2022-12-18T10:28:58;-0.60;65.30
23671;DHT22;12012;51.998;7.614;2022-12-18T10:31:24;-0.50;1.00
23671;DHT22;12012;51.998;7.614;2022-12-18T10:33:50;-0.50;1.00
23671;DHT22;12012;51.998;7.614;2022-12-18T10:36:16;-0.40;1.00
23671;DHT22;12012;51.998;7.614;2022-12-18T10:38:41;-0.40;1.00
23671;DHT22;12012;51.998;7.614;2022-12-18T10:41:25;-0.30;1.00
23671;DHT22;12012;51.998;7.614;2022-12-18T10:44:11;-0.20;15.00
23671;DHT22;12012;51.998;7.614;2022-12-18T10:46:37;-0.10;1.00
23671;DHT22;12012;51.998;7.614;2022-12-18T10:49:03;-0.10;99.90
23671;DHT22;12012;51.998;7.614;2022-12-18T10:51:32;0.00;1.00
23671;DHT22;12012;51.998;7.614;2022-12-18T10:54:03;0.10;99.90
23671;DHT22;12012;51.998;7.614;2022-12-18T10:56:32;0.20;99.90
23671;DHT22;12012;51.998;7.614;2022-12-18T10:59:04;0.30;99.90
23671;DHT22;12012;51.998;7.614;2022-12-18T11:04:28;0.50;99.90
23671;DHT22;12012;51.998;7.614;2022-12-18T11:09:27;0.80;1.00
23671;DHT22;12012;51.998;7.614;2022-12-18T11:11:55;1.10;1.00
23671;DHT22;12012;51.998;7.614;2022-12-18T11:14:22;1.40;99.90
23671;DHT22;12012;51.998;7.614;2022-12-18T11:16:49;1.60;99.90
23671;DHT22;12012;51.998;7.614;2022-12-18T11:19:37;1.80;99.90
23671;DHT22;12012;51.998;7.614;2022-12-18T11:22:20;1.90;99.90
23671;DHT22;12012;51.998;7.614;2022-12-18T11:24:55;1.90;99.90
23671;DHT22;12012;51.998;7.614;2022-12-18T11:27:21;1.80;99.90
23671;DHT22;12012;51.998;7.614;2022-12-18T11:29:50;1.80;99.90
23671;DHT22;12012;51.998;7.614;2022-12-18T11:32:29;1.80;99.90
23671;DHT22;12012;51.998;7.614;2022-12-18T11:37:47;1.60;99.90
23671;DHT22;12012;51.998;7.614;2022-12-18T11:40:17;1.50;99.90
23671;DHT22;12012;51.998;7.614;2022-12-18T11:42:52;1.30;99.90
23671;DHT22;12012;51.998;7.614;2022-12-18T11:45:30;1.20;1.00
23671;DHT22;12012;51.998;7.614;2022-12-18T11:50:56;1.00;1.00
23671;DHT22;12012;51.998;7.614;2022-12-18T11:53:24;0.80;1.00
23671;DHT22;12012;51.998;7.614;2022-12-18T11:59:19;0.60;97.90
23671;DHT22;12012;51.998;7.614;2022-12-18T12:09:51;0.40;99.90
23671;DHT22;12012;51.998;7.614;2022-12-18T12:18:08;0.40;99.90
23671;DHT22;12012;51.998;7.614;2022-12-18T12:21:11;0.40;99.90
23671;DHT22;12012;51.998;7.614;2022-12-18T12:26:42;0.40;99.90
23671;DHT22;12012;51.998;7.614;2022-12-18T12:40:01;0.40;1.00
23671;DHT22;12012;51.998;7.614;2022-12-18T12:42:42;0.30;1.00
23671;DHT22;12012;51.998;7.614;2022-12-18T12:45:38;0.30;1.00
23671;DHT22;12012;51.998;7.614;2022-12-18T12:48:13;0.20;1.00
23671;DHT22;12012;51.998;7.614;2022-12-18T12:50:41;0.20;1.00
23671;DHT22;12012;51.998;7.614;2022-12-18T12:53:09;0.10;23.10
23671;DHT22;12012;51.998;7.614;2022-12-18T12:55:40;0.10;24.70
23671;DHT22;12012;51.998;7.614;2022-12-18T12:58:25;0.00;99.90
23671;DHT22;12012;51.998;7.614;2022-12-18T13:01:12;0.00;99.90
23671;DHT22;12012;51.998;7.614;2022-12-18T13:03:45;0.00;99.90
23671;DHT22;12012;51.998;7.614;2022-12-18T13:06:30;0.00;99.90
23671;DHT22;12012;51.998;7.614;2022-12-18T13:09:00;-0.10;99.90
23671;DHT22;12012;51.998;7.614;2022-12-18T13:11:39;-0.10;99.90
23671;DHT22;12012;51.998;7.614;2022-12-18T13:14:27;-0.10;99.90
23671;DHT22;12012;51.998;7.614;2022-12-18T13:20:13;-0.10;99.90
23671;DHT22;12012;51.998;7.614;2022-12-18T13:22:47;-0.10;99.90
23671;DHT22;12012;51.998;7.614;2022-12-18T13:25:36;-0.20;99.90
23671;DHT22;12012;51.998;7.614;2022-12-18T13:30:54;-0.20;1.00
23671;DHT22;12012;51.998;7.614;2022-12-18T13:36:30;-0.20;1.00
23671;DHT22;12012;51.998;7.614;2022-12-18T13:39:32;-0.20;1.00
23671;DHT22;12012;51.998;7.614;2022-12-18T13:44:39;-0.30;1.00
23671;DHT22;12012;51.998;7.614;2022-12-18T13:49:50;-0.30;1.00
23671;DHT22;12012;51.998;7.614;2022-12-18T13:52:22;-0.40;1.00
23671;DHT22;12012;51.998;7.614;2022-12-18T13:54:55;-0.30;1.00
23671;DHT22;12012;51.998;7.614;2022-12-18T13:59:53;-0.30;1.00
23671;DHT22;12012;51.998;7.614;2022-12-18T14:02:27;-0.40;1.00
23671;DHT22;12012;51.998;7.614;2022-12-18T14:04:53;-0.40;23.20
23671;DHT22;12012;51.998;7.614;2022-12-18T14:07:25;-0.40;12.20
23671;DHT22;12012;51.998;7.614;2022-12-18T14:10:01;-0.40;23.10
23671;DHT22;12012;51.998;7.614;2022-12-18T14:12:29;-0.40;99.90
23671;DHT22;12012;51.998;7.614;2022-12-18T14:17:44;-0.40;99.90
23671;DHT22;12012;51.998;7.614;2022-12-18T14:20:14;-0.40;99.90
23671;DHT22;12012;51.998;7.614;2022-12-18T14:22:44;-0.50;99.90
23671;DHT22;12012;51.998;7.614;2022-12-18T14:25:23;-0.40;99.90
23671;DHT22;12012;51.998;7.614;2022-12-18T14:30:39;-0.40;99.90
23671;DHT22;12012;51.998;7.614;2022-12-18T14:35:36;-0.50;99.90
23671;DHT22;12012;51.998;7.614;2022-12-18T14:38:56;-0.50;99.90
23671;DHT22;12012;51.998;7.614;2022-12-18T14:41:15;-0.60;99.90
23671;DHT22;12012;51.998;7.614;2022-12-18T14:43:44;-0.60;99.90
23671;DHT22;12012;51.998;7.614;2022-12-18T14:46:49;-0.60;99.90
23671;DHT22;12012;51.998;7.614;2022-12-18T14:49:30;-0.70;99.90
23671;DHT22;12012;51.998;7.614;2022-12-18T14:52:01;-0.70;1.00
23671;DHT22;12012;51.998;7.614;2022-12-18T14:54:29;-0.70;1.00
23671;DHT22;12012;51.998;7.614;2022-12-18T14:57:04;-0.70;1.00
23671;DHT22;12012;51.998;7.614;2022-12-18T14:59:31;-0.70;1.00
23671;DHT22;12012;51.998;7.614;2022-12-18T15:04:37;-0.80;1.00
23671;DHT22;12012;51.998;7.614;2022-12-18T15:09:37;-0.80;1.00
23671;DHT22;12012;51.998;7.614;2022-12-18T15:12:03;-0.80;1.00
23671;DHT22;12012;51.998;7.614;2022-12-18T15:17:13;-0.80;1.00
23671;DHT22;12012;51.998;7.614;2022-12-18T15:19:41;-0.80;1.00
23671;DHT22;12012;51.998;7.614;2022-12-18T15:22:28;-0.80;1.00
23671;DHT22;12012;51.998;7.614;2022-12-18T15:24:55;-0.80;1.00
23671;DHT22;12012;51.998;7.614;2022-12-18T15:27:27;-0.80;1.00
23671;DHT22;12012;51.998;7.614;2022-12-18T15:32:33;-0.80;1.00
23671;DHT22;12012;51.998;7.614;2022-12-18T15:35:23;-0.80;1.00
23671;DHT22;12012;51.998;7.614;2022-12-18T15:37:49;-0.80;1.00
23671;DHT22;12012;51.998;7.614;2022-12-18T15:40:23;-0.70;99.90
23671;DHT22;12012;51.998;7.614;2022-12-18T15:42:51;-0.80;99.90
23671;DHT22;12012;51.998;7.614;2022-12-18T15:45:36;-0.70;99.90
23671;DHT22;12012;51.998;7.614;2022-12-18T15:48:17;-0.80;99.90
23671;DHT22;12012;51.998;7.614;2022-12-18T15:50:44;-0.80;99.90
23671;DHT22;12012;51.998;7.614;2022-12-18T15:53:10;-0.70;99.90
23671;DHT22;12012;51.998;7.614;2022-12-18T15:55:35;-0.70;99.90
23671;DHT22;12012;51.998;7.614;2022-12-18T15:58:19;-0.70;99.90
23671;DHT22;12012;51.998;7.614;2022-12-18T16:00:46;-0.70;99.90
23671;DHT22;12012;51.998;7.614;2022-12-18T16:03:11;-0.70;99.90
23671;DHT22;12012;51.998;7.614;2022-12-18T16:05:37;-0.70;99.90
23671;DHT22;12012;51.998;7.614;2022-12-18T16:08:02;-0.70;99.90
23671;DHT22;12012;51.998;7.614;2022-12-18T16:10:28;-0.70;99.90
23671;DHT22;12012;51.998;7.614;2022-12-18T16:12:54;-0.70;99.90
23671;DHT22;12012;51.998;7.614;2022-12-18T16:15:20;-0.70;99.90
23671;DHT22;12012;51.998;7.614;2022-12-18T16:17:46;-0.70;99.90
23671;DHT22;12012;51.998;7.614;2022-12-18T16:20:14;-0.70;99.90
23671;DHT22;12012;51.998;7.614;2022-12-18T16:22:41;-0.70;99.90
23671;DHT22;12012;51.998;7.614;2022-12-18T16:25:25;-0.70;99.90
23671;DHT22;12012;51.998;7.614;2022-12-18T16:27:52;-0.60;99.90
23671;DHT22;12012;51.998;7.614;2022-12-18T16:30:23;-0.60;99.90
23671;DHT22;12012;51.998;7.614;2022-12-18T16:32:49;-0.60;99.90
23671;DHT22;12012;51.998;7.614;2022-12-18T16:35:16;-0.60;99.90
23671;DHT22;12012;51.998;7.614;2022-12-18T16:37:43;-0.60;99.90
23671;DHT22;12012;51.998;7.614;2022-12-18T16:40:11;-0.60;99.90
23671;DHT22;12012;51.998;7.614;2022-12-18T16:42:40;-0.60;99.90
23671;DHT22;12012;51.998;7.614;2022-12-18T16:45:07;-0.60;99.90
23671;DHT22;12012;51.998;7.614;2022-12-18T16:47:33;-0.50;1.00
23671;DHT22;12012;51.998;7.614;2022-12-18T16:49:59;-0.50;99.90
23671;DHT22;12012;51.998;7.614;2022-12-18T16:52:25;-0.40;99.90
23671;DHT22;12012;51.998;7.614;2022-12-18T16:54:50;-0.40;1.00
23671;DHT22;12012;51.998;7.614;2022-12-18T16:57:18;-0.40;99.90
23671;DHT22;12012;51.998;7.614;2022-12-18T16:59:44;-0.40;99.90
23671;DHT22;12012;51.998;7.614;2022-12-18T17:02:18;-0.40;99.90
23671;DHT22;12012;51.998;7.614;2022-12-18T17:04:47;-0.40;99.90
23671;DHT22;12012;51.998;7.614;2022-12-18T17:07:14;-0.50;99.90
23671;DHT22;12012;51.998;7.614;2022-12-18T17:09:39;-0.50;99.90
23671;DHT22;12012;51.998;7.614;2022-12-18T17:12:05;-0.50;99.90
23671;DHT22;12012;51.998;7.614;2022-12-18T17:14:32;-0.50;99.90
23671;DHT22;12012;51.998;7.614;2022-12-18T17:16:58;-0.50;99.90
23671;DHT22;12012;51.998;7.614;2022-12-18T17:19:27;-0.50;99.90
23671;DHT22;12012;51.998;7.614;2022-12-18T17:21:53;-0.50;38.40
23671;DHT22;12012;51.998;7.614;2022-12-18T17:24:19;-0.50;21.50
23671;DHT22;12012;51.998;7.614;2022-12-18T17:26:46;-0.50;1.00
23671;DHT22;12012;51.998;7.614;2022-12-18T17:29:18;-0.50;1.00
23671;DHT22;12012;51.998;7.614;2022-12-18T17:31:45;-0.50;1.00
23671;DHT22;12012;51.998;7.614;2022-12-18T17:34:11;-0.50;1.00
23671;DHT22;12012;51.998;7.614;2022-12-18T17:36:37;-0.50;1.00
23671;DHT22;12012;51.998;7.614;2022-12-18T17:39:04;-0.50;1.00
23671;DHT22;12012;51.998;7.614;2022-12-18T17:41:30;-0.50;1.00
23671;DHT22;12012;51.998;7.614;2022-12-18T17:44:04;-0.50;1.00
23671;DHT22;12012;51.998;7.614;2022-12-18T17:46:31;-0.50;1.00
23671;DHT22;12012;51.998;7.614;2022-12-18T17:48:58;-0.50;99.90
23671;DHT22;12012;51.998;7.614;2022-12-18T17:51:24;-0.50;1.00
23671;DHT22;12012;51.998;7.614;2022-12-18T17:53:50;-0.50;99.90
23671;DHT22;12012;51.998;7.614;2022-12-18T17:56:18;-0.40;99.90
23671;DHT22;12012;51.998;7.614;2022-12-18T17:58:44;-0.40;99.90
23671;DHT22;12012;51.998;7.614;2022-12-18T18:01:13;-0.40;99.90